createdAt,value
2019-03-09T00:00:35.616Z,0.00
2019-03-09T00:01:35.607Z,0.00
2019-03-09T00:02:35.594Z,0.00
2019-03-09T00:03:35.598Z,0.00
2019-03-09T00:04:35.578Z,0.00
2019-03-09T00:05:35.570Z,0.00
2019-03-09T00:06:35.558Z,0.00
2019-03-09T00:07:35.554Z,0.00
2019-03-09T00:08:35.536Z,0.00
2019-03-09T00:09:35.535Z,0.00
2019-03-09T00:10:35.543Z,0.00
2019-03-09T00:11:35.527Z,0.00
2019-03-09T00:12:35.519Z,0.00
2019-03-09T00:13:35.512Z,0.00
2019-03-09T00:14:35.495Z,0.00
2019-03-09T00:15:35.507Z,0.00
2019-03-09T00:16:35.508Z,0.00
2019-03-09T00:17:35.484Z,0.00
2019-03-09T00:18:35.465Z,0.00
2019-03-09T00:19:35.454Z,0.00
2019-03-09T00:20:35.444Z,0.00
2019-03-09T00:21:35.435Z,0.00
2019-03-09T00:22:35.430Z,0.00
2019-03-09T00:23:35.421Z,0.00
2019-03-09T00:24:35.425Z,0.00
2019-03-09T00:25:35.424Z,0.00
2019-03-09T00:26:35.402Z,0.00
2019-03-09T00:27:35.395Z,0.00
2019-03-09T00:28:35.378Z,0.00
2019-03-09T00:29:35.385Z,0.00
2019-03-09T00:30:35.364Z,0.00
2019-03-09T00:31:35.353Z,0.00
2019-03-09T00:32:35.352Z,0.00
2019-03-09T00:33:35.353Z,0.00
2019-03-09T00:34:35.345Z,0.00
2019-03-09T00:35:35.333Z,0.00
2019-03-09T00:36:35.314Z,0.00
2019-03-09T00:37:35.319Z,0.00
2019-03-09T00:38:35.305Z,0.00
2019-03-09T00:39:35.300Z,0.00
2019-03-09T00:40:35.287Z,0.00
2019-03-09T00:41:35.274Z,0.00
2019-03-09T00:42:35.264Z,0.00
2019-03-09T00:43:35.262Z,0.00
2019-03-09T00:44:35.274Z,0.00
2019-03-09T00:45:35.256Z,0.00
2019-03-09T00:46:35.237Z,0.00
2019-03-09T00:47:35.252Z,0.00
2019-03-09T00:48:35.242Z,0.00
2019-03-09T00:49:35.229Z,0.00
2019-03-09T00:50:35.212Z,0.00
2019-03-09T00:51:35.198Z,0.00
2019-03-09T00:52:35.198Z,0.00
2019-03-09T00:53:35.188Z,0.00
2019-03-09T00:54:35.180Z,0.00
2019-03-09T00:55:35.195Z,0.00
2019-03-09T00:56:35.183Z,0.00
2019-03-09T00:57:35.157Z,0.00
2019-03-09T00:58:35.155Z,0.00
2019-03-09T00:59:35.139Z,0.00
2019-03-09T01:00:35.136Z,0.00
2019-03-09T01:01:35.120Z,0.00
2019-03-09T01:02:35.102Z,0.00
2019-03-09T01:03:35.103Z,0.00
2019-03-09T01:04:35.102Z,0.00
2019-03-09T01:05:35.088Z,0.00
2019-03-09T01:06:35.076Z,0.00
2019-03-09T01:07:35.070Z,0.00
2019-03-09T01:08:35.063Z,0.00
2019-03-09T01:09:35.070Z,0.00
2019-03-09T01:10:35.051Z,0.00
2019-03-09T01:11:35.045Z,0.00
2019-03-09T01:12:35.033Z,0.00
2019-03-09T01:13:35.037Z,0.00
2019-03-09T01:14:35.018Z,0.00
2019-03-09T01:15:35.014Z,0.00
2019-03-09T01:16:35.008Z,0.00
2019-03-09T01:17:35.000Z,0.00
2019-03-09T01:18:34.984Z,0.00
2019-03-09T01:19:34.989Z,0.00
2019-03-09T01:20:34.984Z,0.00
2019-03-09T01:21:34.969Z,0.00
2019-03-09T01:22:34.957Z,0.00
2019-03-09T01:23:34.940Z,0.00
2019-03-09T01:24:34.942Z,0.00
2019-03-09T01:25:34.931Z,0.00
2019-03-09T01:26:34.919Z,0.00
2019-03-09T01:27:34.913Z,0.00
2019-03-09T01:28:34.904Z,0.00
2019-03-09T01:29:34.903Z,0.00
2019-03-09T01:30:34.896Z,0.00
2019-03-09T01:31:35.581Z,0.00
2019-03-09T01:32:34.890Z,0.00
2019-03-09T01:33:34.863Z,0.00
2019-03-09T01:34:34.851Z,0.00
2019-03-09T01:35:34.851Z,0.00
2019-03-09T01:36:34.848Z,0.00
2019-03-09T01:37:34.840Z,0.00
2019-03-09T01:38:34.832Z,0.00
2019-03-09T01:39:34.820Z,0.00
2019-03-09T01:40:34.808Z,0.00
2019-03-09T01:41:34.811Z,0.00
2019-03-09T01:42:34.792Z,0.00
2019-03-09T01:43:34.791Z,0.00
2019-03-09T01:44:34.784Z,0.00
2019-03-09T01:45:34.775Z,0.00
2019-03-09T01:46:34.758Z,0.00
2019-03-09T01:47:34.768Z,0.00
2019-03-09T01:48:34.768Z,0.00
2019-03-09T01:49:34.744Z,0.00
2019-03-09T01:50:34.751Z,0.00
2019-03-09T01:51:34.734Z,0.00
2019-03-09T01:52:34.718Z,0.00
2019-03-09T01:53:36.963Z,0.00
2019-03-09T01:54:34.692Z,0.00
2019-03-09T01:55:34.694Z,0.00
2019-03-09T01:56:34.704Z,0.00
2019-03-09T01:57:35.600Z,0.00
2019-03-09T01:58:34.661Z,0.00
2019-03-09T01:59:34.667Z,0.00
2019-03-09T02:00:34.651Z,0.00
2019-03-09T02:01:34.647Z,0.00
2019-03-09T02:02:34.649Z,0.00
2019-03-09T02:03:34.636Z,0.00
2019-03-09T02:04:34.621Z,0.00
2019-03-09T02:05:34.611Z,0.00
2019-03-09T02:06:34.602Z,0.00
2019-03-09T02:07:34.600Z,0.00
2019-03-09T02:08:34.605Z,0.00
2019-03-09T02:09:34.588Z,0.00
2019-03-09T02:10:34.579Z,0.00
2019-03-09T02:11:34.577Z,0.00
2019-03-09T02:12:34.561Z,0.00
2019-03-09T02:13:34.551Z,0.00
2019-03-09T02:14:34.542Z,0.00
2019-03-09T02:15:34.536Z,0.00
2019-03-09T02:16:34.529Z,0.00
2019-03-09T02:17:34.515Z,0.00
2019-03-09T02:18:34.503Z,0.00
2019-03-09T02:19:34.502Z,0.00
2019-03-09T02:20:34.495Z,0.00
2019-03-09T02:21:34.498Z,0.00
2019-03-09T02:22:34.474Z,0.00
2019-03-09T02:23:34.482Z,0.00
2019-03-09T02:24:34.470Z,0.00
2019-03-09T02:25:34.464Z,0.00
2019-03-09T02:26:34.443Z,0.00
2019-03-09T02:27:34.441Z,0.00
2019-03-09T02:28:34.431Z,0.00
2019-03-09T02:29:34.422Z,0.00
2019-03-09T02:30:34.411Z,0.00
2019-03-09T02:31:34.405Z,0.00
2019-03-09T02:32:34.404Z,0.00
2019-03-09T02:33:34.456Z,0.00
2019-03-09T02:34:34.394Z,0.00
2019-03-09T02:35:34.366Z,0.00
2019-03-09T02:36:34.363Z,0.00
2019-03-09T02:37:34.358Z,0.00
2019-03-09T02:38:34.342Z,0.00
2019-03-09T02:39:34.338Z,0.00
2019-03-09T02:40:34.338Z,0.00
2019-03-09T02:41:34.323Z,0.00
2019-03-09T02:42:34.322Z,0.00
2019-03-09T02:43:34.309Z,0.00
2019-03-09T02:44:34.297Z,0.00
2019-03-09T02:45:34.305Z,0.00
2019-03-09T02:46:34.295Z,0.00
2019-03-09T02:47:34.273Z,0.00
2019-03-09T02:48:34.282Z,0.00
2019-03-09T02:49:34.261Z,0.00
2019-03-09T02:50:34.245Z,0.00
2019-03-09T02:51:34.243Z,0.00
2019-03-09T02:52:34.234Z,0.00
2019-03-09T02:53:34.245Z,0.00
2019-03-09T02:54:34.219Z,0.00
2019-03-09T02:55:34.207Z,0.00
2019-03-09T02:56:34.201Z,0.00
2019-03-09T02:57:34.199Z,0.00
2019-03-09T02:58:34.184Z,0.00
2019-03-09T02:59:34.168Z,0.00
2019-03-09T03:00:34.170Z,0.00
2019-03-09T03:01:34.163Z,0.00
2019-03-09T03:02:34.153Z,0.00
2019-03-09T03:03:34.142Z,0.00
2019-03-09T03:04:34.134Z,0.00
2019-03-09T03:05:34.142Z,0.00
2019-03-09T03:06:34.133Z,0.00
2019-03-09T03:07:34.113Z,0.00
2019-03-09T03:08:34.122Z,0.00
2019-03-09T03:09:34.096Z,0.00
2019-03-09T03:10:34.083Z,0.00
2019-03-09T03:11:34.075Z,0.00
2019-03-09T03:12:34.070Z,0.00
2019-03-09T03:13:34.064Z,0.00
2019-03-09T03:14:34.052Z,0.00
2019-03-09T03:15:34.052Z,0.00
2019-03-09T03:16:34.033Z,0.00
2019-03-09T03:17:34.033Z,0.00
2019-03-09T03:18:34.022Z,0.00
2019-03-09T03:19:34.024Z,0.00
2019-03-09T03:20:34.002Z,0.00
2019-03-09T03:21:33.982Z,0.00
2019-03-09T03:22:33.982Z,0.00
2019-03-09T03:23:33.974Z,0.00
2019-03-09T03:24:33.969Z,0.00
2019-03-09T03:25:33.980Z,0.00
2019-03-09T03:26:33.953Z,0.00
2019-03-09T03:27:33.950Z,0.00
2019-03-09T03:28:33.937Z,0.00
2019-03-09T03:29:33.922Z,0.00
2019-03-09T03:30:33.911Z,0.00
2019-03-09T03:31:33.903Z,0.00
2019-03-09T03:32:33.905Z,0.00
2019-03-09T03:33:33.896Z,0.00
2019-03-09T03:34:33.916Z,0.00
2019-03-09T03:35:33.899Z,0.00
2019-03-09T03:36:33.869Z,0.00
2019-03-09T03:37:33.867Z,0.00
2019-03-09T03:38:33.854Z,0.00
2019-03-09T03:39:33.853Z,0.00
2019-03-09T03:40:33.835Z,0.00
2019-03-09T03:41:33.824Z,0.00
2019-03-09T03:42:33.816Z,0.00
2019-03-09T03:43:33.815Z,0.00
2019-03-09T03:44:33.804Z,0.00
2019-03-09T03:45:33.792Z,0.00
2019-03-09T03:46:33.786Z,0.00
2019-03-09T03:47:33.786Z,0.00
2019-03-09T03:48:33.765Z,0.00
2019-03-09T03:49:33.760Z,0.00
2019-03-09T03:50:33.756Z,0.00
2019-03-09T03:51:33.749Z,0.00
2019-03-09T03:52:33.737Z,0.00
2019-03-09T03:53:33.725Z,0.00
2019-03-09T03:54:33.719Z,0.00
2019-03-09T03:55:33.707Z,0.00
2019-03-09T03:56:33.703Z,0.00
2019-03-09T03:57:33.716Z,0.00
2019-03-09T03:58:33.689Z,0.00
2019-03-09T03:59:33.677Z,0.00
2019-03-09T04:00:33.674Z,0.00
2019-03-09T04:01:33.660Z,0.00
2019-03-09T04:02:33.659Z,0.00
2019-03-09T04:03:33.645Z,0.00
2019-03-09T04:04:33.649Z,0.00
2019-03-09T04:05:33.633Z,0.00
2019-03-09T04:06:33.621Z,0.00
2019-03-09T04:07:33.611Z,0.00
2019-03-09T04:08:33.608Z,0.00
2019-03-09T04:09:33.624Z,0.00
2019-03-09T04:10:33.591Z,0.00
2019-03-09T04:11:33.583Z,0.00
2019-03-09T04:12:33.584Z,0.00
2019-03-09T04:13:33.563Z,0.00
2019-03-09T04:14:33.568Z,0.00
2019-03-09T04:15:33.565Z,0.00
2019-03-09T04:16:33.544Z,0.00
2019-03-09T04:17:33.540Z,0.00
2019-03-09T04:18:33.530Z,0.00
2019-03-09T04:19:33.522Z,0.00
2019-03-09T04:20:33.527Z,0.00
2019-03-09T04:21:33.499Z,0.00
2019-03-09T04:22:33.500Z,0.00
2019-03-09T04:23:33.482Z,0.00
2019-03-09T04:24:33.479Z,0.00
2019-03-09T04:25:33.467Z,0.00
2019-03-09T04:26:33.449Z,0.00
2019-03-09T04:27:33.448Z,0.00
2019-03-09T04:28:33.441Z,0.00
2019-03-09T04:29:33.447Z,0.00
2019-03-09T04:30:33.438Z,0.00
2019-03-09T04:31:33.420Z,0.00
2019-03-09T04:32:33.414Z,0.00
2019-03-09T04:33:33.401Z,0.00
2019-03-09T04:34:33.386Z,0.00
2019-03-09T04:35:33.383Z,0.00
2019-03-09T04:36:33.382Z,0.00
2019-03-09T04:37:33.375Z,0.00
2019-03-09T04:38:33.353Z,0.00
2019-03-09T04:39:33.349Z,0.00
2019-03-09T04:40:33.349Z,0.00
2019-03-09T04:41:33.339Z,0.00
2019-03-09T04:42:33.327Z,0.00
2019-03-09T04:43:33.328Z,0.00
2019-03-09T04:44:33.313Z,0.00
2019-03-09T04:45:33.308Z,0.00
2019-03-09T04:46:33.291Z,0.00
2019-03-09T04:47:33.289Z,0.00
2019-03-09T04:48:33.291Z,0.00
2019-03-09T04:49:33.278Z,0.00
2019-03-09T04:50:33.275Z,0.00
2019-03-09T04:51:33.261Z,0.00
2019-03-09T04:52:33.260Z,0.00
2019-03-09T04:53:33.243Z,0.00
2019-03-09T04:54:33.232Z,0.00
2019-03-09T04:55:33.231Z,0.00
2019-03-09T04:56:33.217Z,0.00
2019-03-09T04:57:33.225Z,0.00
2019-03-09T04:58:33.205Z,0.00
2019-03-09T04:59:33.194Z,0.00
2019-03-09T05:00:33.201Z,0.00
2019-03-09T05:01:33.191Z,0.00
2019-03-09T05:02:33.175Z,0.00
2019-03-09T05:03:33.178Z,0.00
2019-03-09T05:04:33.151Z,0.00
2019-03-09T05:05:33.155Z,0.00
2019-03-09T05:06:33.139Z,0.00
2019-03-09T05:07:33.135Z,0.00
2019-03-09T05:08:33.129Z,0.00
2019-03-09T05:09:33.127Z,0.00
2019-03-09T05:10:33.111Z,0.00
2019-03-09T05:11:33.117Z,0.00
2019-03-09T05:12:33.094Z,0.00
2019-03-09T05:13:33.087Z,0.00
2019-03-09T05:14:33.082Z,0.00
2019-03-09T05:15:33.081Z,0.00
2019-03-09T05:16:33.069Z,0.00
2019-03-09T05:17:33.053Z,0.00
2019-03-09T05:18:33.046Z,0.00
2019-03-09T05:19:33.038Z,0.00
2019-03-09T05:20:33.037Z,0.00
2019-03-09T05:21:33.037Z,0.00
2019-03-09T05:22:33.011Z,0.00
2019-03-09T05:23:33.020Z,0.00
2019-03-09T05:24:32.993Z,0.00
2019-03-09T05:25:32.998Z,0.00
2019-03-09T05:26:33.703Z,0.00
2019-03-09T05:27:32.980Z,0.00
2019-03-09T05:28:32.981Z,0.00
2019-03-09T05:29:32.960Z,0.00
2019-03-09T05:30:32.950Z,0.00
2019-03-09T05:31:32.945Z,0.00
2019-03-09T05:32:32.937Z,0.00
2019-03-09T05:33:32.942Z,0.00
2019-03-09T05:34:32.920Z,0.00
2019-03-09T05:35:32.923Z,0.00
2019-03-09T05:36:32.909Z,0.00
2019-03-09T05:37:42.656Z,0.00
2019-03-09T05:38:32.894Z,0.00
2019-03-09T05:39:32.879Z,0.00
2019-03-09T05:40:32.889Z,0.00
2019-03-09T05:41:32.873Z,0.00
2019-03-09T05:42:32.860Z,0.00
2019-03-09T05:43:32.898Z,0.00
2019-03-09T05:44:32.852Z,0.00
2019-03-09T05:45:32.842Z,0.00
2019-03-09T05:46:32.846Z,0.00
2019-03-09T05:47:32.828Z,0.00
2019-03-09T05:48:32.824Z,0.00
2019-03-09T05:49:32.806Z,0.00
2019-03-09T05:50:32.801Z,0.00
2019-03-09T05:51:32.794Z,0.00
2019-03-09T05:52:32.791Z,0.00
2019-03-09T05:53:32.786Z,0.00
2019-03-09T05:54:32.781Z,0.00
2019-03-09T05:55:32.769Z,0.00
2019-03-09T05:56:32.757Z,0.00
2019-03-09T05:57:32.769Z,0.00
2019-03-09T05:58:32.739Z,0.00
2019-03-09T05:59:32.738Z,0.00
2019-03-09T06:00:32.718Z,0.00
2019-03-09T06:01:32.716Z,0.00
2019-03-09T06:02:32.709Z,0.00
2019-03-09T06:03:32.713Z,0.00
2019-03-09T06:04:32.700Z,0.00
2019-03-09T06:05:32.693Z,5.63
2019-03-09T06:06:32.684Z,5.63
2019-03-09T06:07:32.677Z,5.63
2019-03-09T06:08:32.658Z,5.63
2019-03-09T06:09:32.656Z,5.63
2019-03-09T06:10:32.651Z,5.63
2019-03-09T06:11:33.296Z,5.63
2019-03-09T06:12:32.640Z,5.63
2019-03-09T06:13:32.628Z,11.25
2019-03-09T06:14:32.632Z,11.25
2019-03-09T06:15:32.626Z,11.25
2019-03-09T06:16:32.620Z,11.25
2019-03-09T06:17:32.604Z,16.88
2019-03-09T06:18:32.592Z,22.50
2019-03-09T06:19:32.586Z,22.50
2019-03-09T06:20:32.587Z,22.50
2019-03-09T06:21:32.568Z,22.50
2019-03-09T06:22:32.556Z,22.50
2019-03-09T06:23:32.559Z,28.13
2019-03-09T06:24:32.560Z,28.13
2019-03-09T06:25:32.540Z,33.75
2019-03-09T06:26:32.544Z,33.75
2019-03-09T06:27:32.524Z,39.38
2019-03-09T06:28:32.525Z,39.38
2019-03-09T06:29:32.502Z,39.38
2019-03-09T06:30:32.508Z,39.38
2019-03-09T06:31:32.503Z,39.38
2019-03-09T06:32:32.490Z,39.38
2019-03-09T06:33:32.502Z,45.00
2019-03-09T06:34:32.469Z,45.00
2019-03-09T06:35:32.460Z,45.00
2019-03-09T06:36:32.459Z,45.00
2019-03-09T06:37:32.461Z,50.63
2019-03-09T06:38:32.451Z,61.88
2019-03-09T06:39:32.438Z,61.88
2019-03-09T06:40:32.417Z,61.88
2019-03-09T06:41:32.425Z,67.50
2019-03-09T06:42:32.422Z,67.50
2019-03-09T06:43:32.401Z,73.13
2019-03-09T06:44:32.393Z,84.38
2019-03-09T06:45:32.385Z,90.00
2019-03-09T06:46:32.383Z,90.00
2019-03-09T06:47:32.382Z,95.63
2019-03-09T06:48:32.366Z,101.25
2019-03-09T06:49:32.373Z,101.25
2019-03-09T06:50:32.357Z,95.63
2019-03-09T06:51:32.349Z,95.63
2019-03-09T06:52:32.326Z,95.63
2019-03-09T06:53:32.331Z,101.25
2019-03-09T06:54:32.321Z,101.25
2019-03-09T06:55:32.329Z,106.88
2019-03-09T06:56:32.322Z,106.88
2019-03-09T06:57:32.312Z,106.88
2019-03-09T06:58:32.288Z,112.50
2019-03-09T06:59:32.289Z,112.50
2019-03-09T07:00:32.279Z,106.88
2019-03-09T07:01:32.275Z,101.25
2019-03-09T07:02:32.283Z,101.25
2019-03-09T07:03:32.266Z,95.63
2019-03-09T07:04:32.253Z,84.38
2019-03-09T07:05:32.255Z,78.75
2019-03-09T07:06:32.237Z,61.88
2019-03-09T07:07:32.230Z,56.25
2019-03-09T07:08:32.228Z,56.25
2019-03-09T07:09:32.221Z,45.00
2019-03-09T07:10:32.213Z,45.00
2019-03-09T07:11:32.206Z,39.38
2019-03-09T07:12:32.216Z,39.38
2019-03-09T07:13:32.188Z,39.38
2019-03-09T07:14:32.181Z,45.00
2019-03-09T07:15:32.179Z,45.00
2019-03-09T07:16:32.174Z,45.00
2019-03-09T07:17:32.189Z,45.00
2019-03-09T07:18:32.175Z,39.38
2019-03-09T07:19:32.162Z,39.38
2019-03-09T07:20:32.144Z,33.75
2019-03-09T07:21:32.145Z,28.13
2019-03-09T07:22:32.129Z,28.13
2019-03-09T07:23:32.132Z,33.75
2019-03-09T07:24:32.111Z,28.13
2019-03-09T07:25:32.115Z,28.13
2019-03-09T07:26:32.116Z,28.13
2019-03-09T07:27:32.120Z,33.75
2019-03-09T07:28:32.105Z,33.75
2019-03-09T07:29:32.089Z,39.38
2019-03-09T07:30:32.085Z,39.38
2019-03-09T07:31:32.074Z,39.38
2019-03-09T07:32:32.065Z,33.75
2019-03-09T07:33:32.067Z,39.38
2019-03-09T07:34:32.049Z,39.38
2019-03-09T07:35:32.075Z,45.00
2019-03-09T07:36:32.045Z,45.00
2019-03-09T07:37:32.037Z,45.00
2019-03-09T07:38:32.028Z,39.38
2019-03-09T07:39:32.030Z,50.63
2019-03-09T07:40:32.052Z,56.25
2019-03-09T07:41:32.016Z,50.63
2019-03-09T07:42:32.016Z,45.00
2019-03-09T07:43:32.020Z,39.38
2019-03-09T07:44:31.996Z,45.00
2019-03-09T07:45:31.985Z,45.00
2019-03-09T07:46:32.006Z,50.63
2019-03-09T07:47:31.982Z,50.63
2019-03-09T07:48:32.543Z,50.63
2019-03-09T07:49:31.956Z,50.63
2019-03-09T07:50:31.967Z,50.63
2019-03-09T07:51:31.949Z,50.63
2019-03-09T07:52:31.946Z,50.63
2019-03-09T07:53:31.940Z,61.88
2019-03-09T07:54:31.944Z,78.75
2019-03-09T07:55:31.926Z,84.38
2019-03-09T07:56:31.913Z,90.00
2019-03-09T07:57:31.904Z,101.25
2019-03-09T07:58:31.894Z,112.50
2019-03-09T07:59:31.893Z,112.50
2019-03-09T08:00:31.896Z,112.50
2019-03-09T08:01:31.890Z,101.25
2019-03-09T08:02:31.883Z,106.88
2019-03-09T08:03:31.883Z,118.13
2019-03-09T08:04:31.873Z,118.13
2019-03-09T08:05:31.853Z,112.50
2019-03-09T08:06:31.853Z,112.50
2019-03-09T08:07:31.867Z,101.25
2019-03-09T08:08:31.845Z,84.38
2019-03-09T08:09:31.836Z,84.38
2019-03-09T08:10:31.823Z,95.63
2019-03-09T08:11:31.818Z,90.00
2019-03-09T08:12:31.816Z,90.00
2019-03-09T08:13:31.812Z,84.38
2019-03-09T08:14:31.804Z,78.75
2019-03-09T08:15:31.816Z,78.75
2019-03-09T08:16:35.951Z,78.75
2019-03-09T08:17:32.758Z,84.38
2019-03-09T08:18:31.797Z,84.38
2019-03-09T08:19:31.810Z,90.00
2019-03-09T08:20:31.811Z,90.00
2019-03-09T08:21:31.783Z,90.00
2019-03-09T08:22:31.755Z,84.38
2019-03-09T08:23:31.752Z,84.38
2019-03-09T08:24:31.750Z,84.38
2019-03-09T08:25:31.734Z,90.00
2019-03-09T08:26:31.732Z,95.63
2019-03-09T08:27:31.731Z,90.00
2019-03-09T08:28:31.712Z,90.00
2019-03-09T08:29:31.722Z,90.00
2019-03-09T08:30:31.707Z,90.00
2019-03-09T08:31:31.704Z,90.00
2019-03-09T08:32:31.713Z,90.00
2019-03-09T08:33:31.692Z,90.00
2019-03-09T08:34:31.689Z,95.63
2019-03-09T08:35:31.679Z,101.25
2019-03-09T08:36:31.676Z,95.63
2019-03-09T08:37:31.661Z,90.00
2019-03-09T08:38:31.660Z,95.63
2019-03-09T08:39:31.653Z,95.63
2019-03-09T08:40:31.658Z,101.25
2019-03-09T08:41:31.639Z,101.25
2019-03-09T08:42:31.642Z,106.88
2019-03-09T08:43:31.624Z,106.88
2019-03-09T08:44:31.638Z,101.25
2019-03-09T08:45:31.630Z,101.25
2019-03-09T08:46:31.646Z,106.88
2019-03-09T08:47:31.607Z,112.50
2019-03-09T08:48:31.596Z,112.50
2019-03-09T08:49:31.597Z,106.88
2019-03-09T08:50:31.595Z,112.50
2019-03-09T08:51:31.594Z,118.13
2019-03-09T08:52:31.580Z,118.13
2019-03-09T08:53:31.570Z,123.75
2019-03-09T08:54:31.558Z,129.38
2019-03-09T08:55:31.561Z,140.63
2019-03-09T08:56:33.437Z,140.63
2019-03-09T08:57:31.563Z,135.00
2019-03-09T08:58:31.550Z,123.75
2019-03-09T08:59:31.569Z,118.13
2019-03-09T09:00:31.541Z,118.13
2019-03-09T09:01:31.524Z,106.88
2019-03-09T09:02:31.521Z,101.25
2019-03-09T09:03:31.514Z,106.88
2019-03-09T09:04:31.507Z,118.13
2019-03-09T09:05:31.539Z,129.38
2019-03-09T09:06:31.497Z,135.00
2019-03-09T09:07:31.496Z,135.00
2019-03-09T09:08:31.586Z,129.38
2019-03-09T09:09:32.596Z,135.00
2019-03-09T09:10:33.857Z,140.63
2019-03-09T09:11:43.006Z,146.25
2019-03-09T09:12:33.809Z,146.25
2019-03-09T09:13:31.475Z,146.25
2019-03-09T09:14:35.913Z,146.25
2019-03-09T09:15:31.458Z,146.25
2019-03-09T09:16:44.308Z,151.88
2019-03-09T09:17:31.464Z,151.88
2019-03-09T09:18:32.057Z,151.88
2019-03-09T09:19:38.004Z,163.13
2019-03-09T09:20:37.433Z,168.75
2019-03-09T09:21:36.572Z,168.75
2019-03-09T09:22:43.380Z,174.38
2019-03-09T09:23:44.829Z,185.63
2019-03-09T09:24:44.720Z,174.38
2019-03-09T09:25:38.302Z,163.13
2019-03-09T09:26:31.392Z,157.50
2019-03-09T09:27:31.385Z,157.50
2019-03-09T09:28:31.388Z,151.88
2019-03-09T09:29:35.073Z,146.25
2019-03-09T09:30:39.113Z,151.88
2019-03-09T09:31:38.376Z,168.75
2019-03-09T09:32:32.487Z,180.00
2019-03-09T09:33:31.361Z,180.00
2019-03-09T09:34:32.304Z,180.00
2019-03-09T09:35:39.044Z,174.38
2019-03-09T09:36:38.992Z,174.38
2019-03-09T09:37:42.178Z,174.38
2019-03-09T09:38:41.590Z,180.00
2019-03-09T09:39:32.175Z,191.25
2019-03-09T09:40:31.331Z,196.88
2019-03-09T09:41:35.589Z,202.50
2019-03-09T09:42:36.339Z,196.88
2019-03-09T09:43:37.060Z,180.00
2019-03-09T09:44:45.548Z,174.38
2019-03-09T09:45:31.866Z,163.13
2019-03-09T09:46:39.039Z,151.88
2019-03-09T09:48:06.821Z,151.88
2019-03-09T09:48:38.143Z,168.75
2019-03-09T09:49:31.282Z,168.75
2019-03-09T09:50:31.289Z,163.13
2019-03-09T09:51:31.268Z,163.13
2019-03-09T09:52:31.345Z,174.38
2019-03-09T09:53:32.763Z,191.25
2019-03-09T09:54:38.769Z,191.25
2019-03-09T09:55:36.832Z,185.63
2019-03-09T09:56:31.257Z,191.25
2019-03-09T09:57:39.930Z,196.88
2019-03-09T09:58:34.247Z,196.88
2019-03-09T09:59:37.811Z,196.88
2019-03-09T10:00:45.757Z,196.88
2019-03-09T10:01:35.272Z,191.25
2019-03-09T10:02:33.601Z,185.63
2019-03-09T10:03:47.033Z,185.63
2019-03-09T10:04:37.948Z,180.00
2019-03-09T10:05:31.205Z,174.38
2019-03-09T10:06:31.211Z,163.13
2019-03-09T10:07:31.199Z,168.75
2019-03-09T10:08:31.195Z,180.00
2019-03-09T10:09:31.193Z,191.25
2019-03-09T10:10:31.278Z,202.50
2019-03-09T10:11:31.181Z,202.50
2019-03-09T10:12:31.173Z,196.88
2019-03-09T10:13:31.183Z,202.50
2019-03-09T10:14:31.820Z,202.50
2019-03-09T10:15:31.159Z,196.88
2019-03-09T10:16:31.175Z,208.13
2019-03-09T10:17:31.161Z,202.50
2019-03-09T10:18:31.151Z,191.25
2019-03-09T10:19:31.142Z,180.00
2019-03-09T10:20:31.143Z,174.38
2019-03-09T10:21:31.155Z,185.63
2019-03-09T10:22:31.153Z,196.88
2019-03-09T10:23:31.132Z,202.50
2019-03-09T10:24:31.124Z,202.50
2019-03-09T10:25:31.121Z,202.50
2019-03-09T10:26:31.127Z,208.13
2019-03-09T10:27:31.132Z,213.75
2019-03-09T10:28:31.111Z,213.75
2019-03-09T10:29:31.117Z,213.75
2019-03-09T10:30:31.116Z,213.75
2019-03-09T10:31:31.105Z,213.75
2019-03-09T10:32:31.111Z,213.75
2019-03-09T10:33:31.100Z,236.25
2019-03-09T10:34:31.099Z,264.38
2019-03-09T10:35:31.093Z,264.38
2019-03-09T10:36:31.084Z,253.13
2019-03-09T10:37:31.072Z,247.50
2019-03-09T10:38:31.076Z,247.50
2019-03-09T10:39:31.069Z,253.13
2019-03-09T10:40:31.126Z,247.50
2019-03-09T10:41:31.073Z,236.25
2019-03-09T10:42:31.059Z,225.00
2019-03-09T10:43:31.061Z,230.63
2019-03-09T10:44:31.058Z,236.25
2019-03-09T10:45:31.053Z,241.88
2019-03-09T10:46:31.044Z,236.25
2019-03-09T10:47:31.045Z,230.63
2019-03-09T10:48:31.062Z,236.25
2019-03-09T10:49:31.073Z,236.25
2019-03-09T10:50:31.045Z,236.25
2019-03-09T10:51:31.038Z,236.25
2019-03-09T10:52:31.030Z,225.00
2019-03-09T10:53:31.037Z,241.88
2019-03-09T10:54:35.903Z,241.88
2019-03-09T10:55:31.025Z,241.88
2019-03-09T10:56:31.023Z,230.63
2019-03-09T10:57:31.022Z,230.63
2019-03-09T10:58:31.024Z,241.88
2019-03-09T10:59:31.008Z,236.25
2019-03-09T11:00:31.006Z,219.38
2019-03-09T11:01:31.024Z,213.75
2019-03-09T11:02:30.995Z,208.13
2019-03-09T11:03:31.033Z,208.13
2019-03-09T11:04:31.010Z,213.75
2019-03-09T11:05:31.019Z,236.25
2019-03-09T11:06:31.015Z,241.88
2019-03-09T11:07:30.988Z,247.50
2019-03-09T11:08:30.998Z,247.50
2019-03-09T11:09:30.983Z,247.50
2019-03-09T11:10:30.981Z,230.63
2019-03-09T11:11:30.978Z,219.38
2019-03-09T11:12:30.973Z,230.63
2019-03-09T11:13:30.997Z,230.63
2019-03-09T11:14:30.967Z,225.00
2019-03-09T11:15:30.968Z,225.00
2019-03-09T11:16:30.969Z,230.63
2019-03-09T11:17:30.968Z,236.25
2019-03-09T11:18:30.961Z,230.63
2019-03-09T11:19:30.994Z,225.00
2019-03-09T11:20:30.948Z,213.75
2019-03-09T11:21:30.961Z,213.75
2019-03-09T11:22:30.959Z,225.00
2019-03-09T11:23:31.085Z,213.75
2019-03-09T11:24:30.967Z,213.75
2019-03-09T11:25:30.943Z,208.13
2019-03-09T11:26:30.954Z,208.13
2019-03-09T11:27:30.934Z,213.75
2019-03-09T11:28:30.927Z,208.13
2019-03-09T11:29:30.954Z,213.75
2019-03-09T11:30:30.920Z,219.38
2019-03-09T11:31:30.945Z,219.38
2019-03-09T11:32:30.953Z,219.38
2019-03-09T11:33:30.927Z,225.00
2019-03-09T11:34:30.916Z,208.13
2019-03-09T11:35:32.800Z,208.13
2019-03-09T11:36:30.955Z,202.50
2019-03-09T11:37:30.910Z,208.13
2019-03-09T11:38:30.908Z,213.75
2019-03-09T11:39:30.921Z,219.38
2019-03-09T11:40:30.901Z,213.75
2019-03-09T11:41:30.897Z,213.75
2019-03-09T11:42:30.936Z,219.38
2019-03-09T11:43:30.907Z,230.63
2019-03-09T11:44:30.892Z,230.63
2019-03-09T11:45:30.949Z,219.38
2019-03-09T11:46:30.899Z,208.13
2019-03-09T11:47:30.881Z,208.13
2019-03-09T11:48:30.893Z,213.75
2019-03-09T11:49:30.915Z,230.63
2019-03-09T11:50:30.874Z,225.00
2019-03-09T11:51:30.886Z,230.63
2019-03-09T11:52:30.920Z,247.50
2019-03-09T11:53:30.882Z,236.25
2019-03-09T11:54:30.874Z,230.63
2019-03-09T11:55:30.865Z,219.38
2019-03-09T11:56:30.873Z,213.75
2019-03-09T11:57:30.885Z,213.75
2019-03-09T11:58:30.859Z,219.38
2019-03-09T11:59:30.874Z,225.00
2019-03-09T12:00:30.851Z,236.25
2019-03-09T12:01:30.847Z,247.50
2019-03-09T12:02:38.542Z,247.50
2019-03-09T12:03:30.855Z,219.38
2019-03-09T12:04:30.842Z,180.00
2019-03-09T12:05:30.877Z,163.13
2019-03-09T12:06:30.844Z,157.50
2019-03-09T12:07:30.830Z,146.25
2019-03-09T12:08:30.834Z,129.38
2019-03-09T12:09:30.861Z,118.13
2019-03-09T12:10:30.825Z,118.13
2019-03-09T12:11:30.816Z,129.38
2019-03-09T12:12:30.840Z,151.88
2019-03-09T12:13:30.822Z,151.88
2019-03-09T12:14:30.808Z,140.63
2019-03-09T12:15:30.848Z,129.38
2019-03-09T12:16:30.816Z,118.13
2019-03-09T12:17:30.811Z,129.38
2019-03-09T12:18:30.800Z,157.50
2019-03-09T12:19:30.824Z,202.50
2019-03-09T12:20:30.792Z,230.63
2019-03-09T12:21:30.819Z,196.88
2019-03-09T12:22:30.816Z,140.63
2019-03-09T12:23:30.786Z,106.88
2019-03-09T12:24:30.777Z,90.00
2019-03-09T12:25:30.823Z,90.00
2019-03-09T12:26:30.779Z,84.38
2019-03-09T12:27:30.773Z,78.75
2019-03-09T12:28:30.782Z,78.75
2019-03-09T12:29:30.798Z,78.75
2019-03-09T12:30:30.765Z,78.75
2019-03-09T12:31:30.775Z,78.75
2019-03-09T12:32:30.776Z,78.75
2019-03-09T12:33:30.755Z,67.50
2019-03-09T12:34:30.750Z,78.75
2019-03-09T12:35:30.784Z,90.00
2019-03-09T12:36:30.760Z,95.63
2019-03-09T12:37:30.735Z,84.38
2019-03-09T12:38:30.733Z,118.13
2019-03-09T12:39:30.767Z,101.25
2019-03-09T12:40:30.729Z,95.63
2019-03-09T12:41:30.729Z,101.25
2019-03-09T12:42:30.750Z,118.13
2019-03-09T12:43:30.742Z,129.38
2019-03-09T12:44:30.706Z,123.75
2019-03-09T12:45:30.740Z,135.00
2019-03-09T12:46:30.725Z,123.75
2019-03-09T12:47:30.702Z,112.50
2019-03-09T12:48:30.707Z,95.63
2019-03-09T12:49:30.736Z,84.38
2019-03-09T12:50:30.705Z,90.00
2019-03-09T12:51:30.708Z,90.00
2019-03-09T12:52:30.720Z,118.13
2019-03-09T12:53:30.687Z,84.38
2019-03-09T12:54:30.673Z,84.38
2019-03-09T12:55:30.677Z,84.38
2019-03-09T12:56:30.689Z,84.38